Time;durP1;ratioP1;P1;durP2;ratioP2;P2;SDS_P1;SDS_P2;PMS_P1;PMS_P2;Temp;Humidity;BMP_temperature;BMP_pressure;BME280_temperature;BME280_humidity;BME280_pressure;Samples;Min_cycle;Max_cycle;Signal;HPM_P1;HPM_P2
2023/11/17 00:01:56;;;;;;;6.65;6.03;;;5.20;99.90;;;;;;5045553;28;20233;-87
2023/11/17 00:04:24;;;;;;;5.07;3.38;;;5.20;99.90;;;;;;5055514;28;20267;-86
2023/11/17 00:06:51;;;;;;;1.90;1.80;;;5.20;99.90;;;;;;5054643;28;20213;-82
2023/11/17 00:09:18;;;;;;;12.80;5.35;;;5.20;99.90;;;;;;5054905;28;20208;-82
2023/11/17 00:11:45;;;;;;;4.78;4.43;;;5.20;99.90;;;;;;5027052;28;20237;-84
2023/11/17 00:14:12;;;;;;;3.88;3.67;;;5.10;99.90;;;;;;5047434;28;20228;-84
2023/11/17 00:16:39;;;;;;;6.80;5.38;;;5.10;99.90;;;;;;5056854;28;20195;-85
2023/11/17 00:19:06;;;;;;;7.07;3.67;;;5.10;99.90;;;;;;5053205;28;20219;-84
2023/11/17 00:21:34;;;;;;;3.45;2.90;;;5.10;99.90;;;;;;5055747;28;20188;-85
2023/11/17 00:24:05;;;;;;;14.85;3.75;;;5.10;99.90;;;;;;5047578;28;20216;-86
2023/11/17 00:26:33;;;;;;;6.43;5.47;;;5.10;99.90;;;;;;5038894;28;20200;-86
2023/11/17 00:29:00;;;;;;;3.03;2.08;;;5.10;99.90;;;;;;5042626;28;20200;-85
2023/11/17 00:31:30;;;;;;;6.82;6.10;;;5.10;99.90;;;;;;5040698;28;20247;-85
2023/11/17 00:33:57;;;;;;;7.38;4.82;;;5.10;99.90;;;;;;5040194;28;20243;-84
2023/11/17 00:36:26;;;;;;;2.92;2.78;;;5.10;99.90;;;;;;5062067;28;20237;-87
2023/11/17 00:38:53;;;;;;;1.05;1.05;;;5.10;99.90;;;;;;5035260;28;20284;-85
2023/11/17 00:41:20;;;;;;;16.05;6.60;;;5.10;99.90;;;;;;5045631;28;20213;-84
2023/11/17 00:43:56;;;;;;;5.50;5.20;;;5.20;99.90;;;;;;5044572;28;20227;-84
2023/11/17 00:46:23;;;;;;;6.03;5.63;;;5.20;99.90;;;;;;5037592;28;20232;-86
2023/11/17 00:48:51;;;;;;;5.72;3.55;;;5.20;99.90;;;;;;5039410;28;20220;-83
2023/11/17 00:51:18;;;;;;;4.45;3.80;;;5.10;99.90;;;;;;5043628;28;20243;-83
2023/11/17 00:53:46;;;;;;;2.78;2.67;;;5.20;99.90;;;;;;5043646;28;20513;-84
2023/11/17 00:56:14;;;;;;;6.20;5.70;;;5.20;99.90;;;;;;5044329;28;20223;-84
2023/11/17 00:58:41;;;;;;;3.90;3.70;;;5.10;99.90;;;;;;5044396;28;20227;-85
2023/11/17 01:01:08;;;;;;;3.17;2.90;;;5.00;99.90;;;;;;5056950;28;20192;-85
2023/11/17 01:03:36;;;;;;;5.25;4.75;;;5.10;99.90;;;;;;5073831;28;20292;-85
2023/11/17 01:06:04;;;;;;;5.22;4.05;;;5.10;99.90;;;;;;5044251;28;20251;-85
2023/11/17 01:08:35;;;;;;;2.00;1.90;;;5.10;99.90;;;;;;5047156;28;20205;-84
2023/11/17 01:11:03;;;;;;;5.68;4.95;;;5.10;99.90;;;;;;5045686;28;20267;-85
2023/11/17 01:13:30;;;;;;;3.70;3.60;;;5.10;99.90;;;;;;5046706;28;20240;-87
2023/11/17 01:15:57;;;;;;;3.85;3.53;;;5.00;99.90;;;;;;5048452;28;20271;-86
2023/11/17 01:18:24;;;;;;;3.97;3.60;;;5.00;99.90;;;;;;5046321;28;20213;-87
2023/11/17 01:20:52;;;;;;;5.35;4.90;;;5.00;99.90;;;;;;5043152;28;20541;-86
2023/11/17 01:23:18;;;;;;;4.40;4.18;;;5.10;99.90;;;;;;5041672;28;20305;-87
2023/11/17 01:25:46;;;;;;;5.97;3.22;;;5.10;99.90;;;;;;5056133;28;20197;-85
2023/11/17 01:28:13;;;;;;;7.28;6.68;;;5.10;99.90;;;;;;5058608;28;20185;-87
2023/11/17 01:30:40;;;;;;;7.57;2.58;;;5.10;99.90;;;;;;5058089;28;20256;-87
2023/11/17 01:33:08;;;;;;;6.35;5.78;;;5.10;99.90;;;;;;5045029;28;20228;-86
2023/11/17 01:35:38;;;;;;;6.35;5.53;;;5.30;99.90;;;;;;5038605;28;20217;-87
2023/11/17 01:38:05;;;;;;;6.78;6.18;;;5.20;99.90;;;;;;5042672;28;20459;-87
2023/11/17 01:40:32;;;;;;;4.90;4.50;;;5.20;99.90;;;;;;5046151;28;20243;-88
2023/11/17 01:43:11;;;;;;;4.07;3.78;;;5.20;99.90;;;;;;5047033;28;20292;-87
2023/11/17 01:45:42;;;;;;;4.57;4.28;;;5.10;99.90;;;;;;5043912;28;20272;-86
2023/11/17 01:48:10;;;;;;;2.03;1.92;;;5.00;99.90;;;;;;5042040;28;20201;-88
2023/11/17 01:50:38;;;;;;;4.05;3.85;;;5.10;99.90;;;;;;5045593;28;20192;-88
2023/11/17 01:53:07;;;;;;;2.40;2.30;;;5.10;99.90;;;;;;5048453;28;20268;-87
2023/11/17 01:55:35;;;;;;;4.07;3.78;;;5.00;99.90;;;;;;5040703;28;20213;-87
2023/11/17 01:58:02;;;;;;;8.90;8.20;;;5.10;99.90;;;;;;5043671;28;20400;-88
2023/11/17 02:00:29;;;;;;;4.97;3.63;;;5.10;99.90;;;;;;5046136;28;20224;-87
2023/11/17 02:02:56;;;;;;;2.80;2.70;;;5.10;99.90;;;;;;5044584;28;20271;-87
2023/11/17 02:05:25;;;;;;;5.80;5.40;;;5.10;99.90;;;;;;5047302;28;20201;-90
2023/11/17 02:08:17;;;;;;;1.27;1.27;;;5.10;99.90;;;;;;5045988;28;20213;-86
2023/11/17 02:11:09;;;;;;;6.05;5.57;;;5.10;99.90;;;;;;5047393;28;20227;-87
2023/11/17 02:13:42;;;;;;;6.25;5.57;;;5.10;99.90;;;;;;5048147;28;20264;-86
2023/11/17 02:16:17;;;;;;;2.85;2.72;;;5.20;99.90;;;;;;5045237;28;20200;-88
2023/11/17 02:18:49;;;;;;;6.80;6.22;;;5.20;99.90;;;;;;5032181;28;20271;-86
2023/11/17 02:21:21;;;;;;;4.53;4.13;;;5.20;99.90;;;;;;5053207;28;20223;-87
2023/11/17 02:23:53;;;;;;;5.32;4.82;;;5.20;99.90;;;;;;5049319;28;20209;-87
2023/11/17 02:26:42;;;;;;;6.35;5.78;;;5.20;99.90;;;;;;5051666;28;20201;-87
2023/11/17 02:29:29;;;;;;;4.28;3.97;;;5.20;99.90;;;;;;5048523;28;20203;-85
2023/11/17 02:31:58;;;;;;;4.03;3.72;;;5.20;99.90;;;;;;5038315;28;20420;-86
2023/11/17 02:34:26;;;;;;;11.50;6.53;;;5.20;99.90;;;;;;5044255;28;20253;-84
2023/11/17 02:36:54;;;;;;;5.15;4.85;;;5.20;99.90;;;;;;5043198;28;20757;-83
2023/11/17 02:39:25;;;;;;;8.00;7.50;;;5.20;99.90;;;;;;5035137;28;20495;-85
2023/11/17 02:41:58;;;;;;;5.30;4.30;;;5.20;99.90;;;;;;5042559;28;20240;-84
2023/11/17 02:44:33;;;;;;;4.50;4.20;;;5.20;99.90;;;;;;5043298;28;20232;-84
2023/11/17 02:47:04;;;;;;;6.78;5.50;;;5.20;99.90;;;;;;5042279;28;20207;-83
2023/11/17 02:50:18;;;;;;;5.20;4.68;;;5.20;99.90;;;;;;5042472;28;20464;-84
2023/11/17 02:52:26;;;;;;;4.28;4.00;;;5.20;99.90;;;;;;5023788;28;20240;-83
2023/11/17 02:54:55;;;;;;;5.25;4.97;;;5.20;99.90;;;;;;5040576;28;20296;-84
2023/11/17 02:57:25;;;;;;;5.20;4.82;;;5.20;99.90;;;;;;5041213;28;20718;-84
2023/11/17 02:59:53;;;;;;;3.00;2.85;;;5.20;99.90;;;;;;5041190;28;20232;-89
2023/11/17 03:02:21;;;;;;;4.72;4.43;;;5.20;99.90;;;;;;5040158;28;20721;-88
2023/11/17 03:04:54;;;;;;;2.17;2.08;;;5.10;99.90;;;;;;5042149;28;20272;-85
2023/11/17 03:07:21;;;;;;;7.53;6.90;;;5.10;99.90;;;;;;5041499;28;20419;-85
2023/11/17 03:09:51;;;;;;;8.63;7.82;;;5.00;99.90;;;;;;5040977;28;20196;-84
2023/11/17 03:12:20;;;;;;;4.60;4.28;;;5.10;99.90;;;;;;5040425;28;20220;-85
2023/11/17 03:14:47;;;;;;;1.92;1.83;;;5.10;99.90;;;;;;5042189;28;20256;-90
2023/11/17 03:17:14;;;;;;;4.07;3.88;;;5.10;99.90;;;;;;5046724;28;20208;-84
2023/11/17 03:19:41;;;;;;;4.93;3.80;;;5.10;99.90;;;;;;5054749;28;20239;-86
2023/11/17 03:22:08;;;;;;;3.97;2.22;;;5.00;99.90;;;;;;5049089;28;20212;-86
2023/11/17 03:24:36;;;;;;;3.65;3.50;;;5.00;99.90;;;;;;5046411;28;20231;-87
2023/11/17 03:27:05;;;;;;;6.57;6.07;;;5.10;99.90;;;;;;5045321;28;20275;-85
2023/11/17 03:29:32;;;;;;;1.58;1.48;;;5.10;99.90;;;;;;5050611;28;20268;-85
2023/11/17 03:32:00;;;;;;;3.35;3.15;;;5.10;99.90;;;;;;5057009;28;20280;-89
2023/11/17 03:34:29;;;;;;;8.80;5.03;;;5.10;99.90;;;;;;5414395;22;20232;-87
2023/11/17 03:37:00;;;;;;;2.30;2.20;;;5.20;99.90;;;;;;5042625;28;20247;-86
2023/11/17 03:39:30;;;;;;;4.82;4.03;;;5.10;99.90;;;;;;5042577;28;20443;-86
2023/11/17 03:41:59;;;;;;;4.95;4.70;;;5.10;99.90;;;;;;5034983;28;20441;-88
2023/11/17 03:44:29;;;;;;;2.25;2.08;;;5.20;99.90;;;;;;5040051;28;20308;-86
2023/11/17 03:46:58;;;;;;;2.05;1.95;;;5.20;99.90;;;;;;5033412;28;20196;-88
2023/11/17 03:49:26;;;;;;;4.13;3.85;;;5.20;99.90;;;;;;5028038;28;20505;-88
2023/11/17 03:51:53;;;;;;;6.63;5.80;;;5.20;99.90;;;;;;5039454;28;20432;-83
2023/11/17 03:54:21;;;;;;;0.90;0.90;;;5.20;99.90;;;;;;5038197;28;20201;-90
2023/11/17 03:56:56;;;;;;;4.22;3.83;;;5.30;99.90;;;;;;5038470;28;20280;-85
2023/11/17 03:59:24;;;;;;;2.38;2.28;;;5.20;99.90;;;;;;5035397;28;20200;-89
2023/11/17 04:01:52;;;;;;;1.75;1.65;;;5.20;99.90;;;;;;5036586;28;20429;-89
2023/11/17 04:04:19;;;;;;;2.05;1.95;;;5.30;99.90;;;;;;5037759;28;20232;-86
2023/11/17 04:06:51;;;;;;;1.42;1.42;;;5.20;99.90;;;;;;5037508;28;20221;-86
2023/11/17 04:09:23;;;;;;;5.35;4.25;;;5.30;99.90;;;;;;5035978;28;20210;-85
2023/11/17 04:11:52;;;;;;;2.10;2.00;;;5.30;99.90;;;;;;5041532;28;20204;-85
2023/11/17 04:14:21;;;;;;;2.85;2.70;;;5.30;99.90;;;;;;5051478;28;20185;-85
2023/11/17 04:16:49;;;;;;;2.13;2.03;;;5.30;99.90;;;;;;5040489;28;20236;-85
2023/11/17 04:19:19;;;;;;;0.75;0.75;;;5.30;99.90;;;;;;5042223;28;20196;-83
2023/11/17 04:21:49;;;;;;;4.05;2.80;;;5.50;99.90;;;;;;5033825;28;20213;-82
2023/11/17 04:24:18;;;;;;;6.13;2.42;;;5.40;99.90;;;;;;5228918;22;20236;-87
2023/11/17 04:26:46;;;;;;;0.80;0.80;;;5.30;99.90;;;;;;5043793;28;20205;-83
2023/11/17 04:29:13;;;;;;;0.70;0.70;;;5.30;99.90;;;;;;5038774;28;20200;-87
2023/11/17 04:31:41;;;;;;;1.17;1.08;;;5.30;99.90;;;;;;5064712;28;20257;-83
2023/11/17 04:34:11;;;;;;;3.47;3.17;;;5.30;99.90;;;;;;5048599;28;20197;-85
2023/11/17 04:36:38;;;;;;;1.73;1.63;;;5.20;99.90;;;;;;5050517;28;20189;-84
2023/11/17 04:39:17;;;;;;;2.17;2.08;;;5.30;99.90;;;;;;5052199;28;20229;-88
2023/11/17 04:41:46;;;;;;;2.00;1.90;;;5.20;99.90;;;;;;5045330;28;20233;-84
2023/11/17 04:44:14;;;;;;;1.95;1.85;;;5.30;99.90;;;;;;5051270;28;20281;-84
2023/11/17 04:46:41;;;;;;;1.60;1.50;;;5.20;99.90;;;;;;5036423;28;20184;-83
2023/11/17 04:49:08;;;;;;;1.50;1.50;;;5.20;99.90;;;;;;5050471;28;20193;-86
2023/11/17 04:51:38;;;;;;;2.25;2.15;;;5.20;99.90;;;;;;5059693;28;20181;-86
2023/11/17 04:54:06;;;;;;;3.70;2.28;;;5.20;99.90;;;;;;5048093;28;20185;-83
2023/11/17 04:56:33;;;;;;;2.08;1.98;;;5.10;99.90;;;;;;5092679;22;20299;-84
2023/11/17 04:59:00;;;;;;;3.72;3.50;;;5.10;99.90;;;;;;5203490;22;20246;-82
2023/11/17 05:04:01;;;;;;;4.60;3.08;;;5.10;99.90;;;;;;5000634;28;20217;-86
2023/11/17 05:06:29;;;;;;;4.82;4.43;;;5.20;99.90;;;;;;5007876;28;20285;-84
2023/11/17 05:08:56;;;;;;;2.30;2.13;;;5.00;99.90;;;;;;4993773;28;20297;-81
2023/11/17 05:11:27;;;;;;;3.58;2.25;;;5.00;99.90;;;;;;5040824;22;20220;-83
2023/11/17 05:13:54;;;;;;;4.82;4.53;;;4.90;99.90;;;;;;5196098;22;20256;-80
2023/11/17 05:21:38;;;;;;;2.38;2.28;;;4.90;99.90;;;;;;5072710;22;20525;-83
2023/11/17 05:24:06;;;;;;;5.50;5.00;;;4.80;99.90;;;;;;5194384;22;20229;-86
2023/11/17 05:26:34;;;;;;;2.67;2.53;;;4.80;99.90;;;;;;5125643;23;20302;-85
2023/11/17 05:29:01;;;;;;;9.18;4.68;;;4.70;99.90;;;;;;5260140;22;20264;-90
2023/11/17 05:31:28;;;;;;;3.13;2.90;;;4.70;99.90;;;;;;5038683;28;20236;-84
2023/11/17 05:33:57;;;;;;;4.20;3.00;;;4.80;99.90;;;;;;5030342;28;20228;-88
2023/11/17 05:36:25;;;;;;;4.35;3.95;;;4.70;99.90;;;;;;5028877;28;20263;-86
2023/11/17 05:38:55;;;;;;;5.85;3.92;;;4.80;99.90;;;;;;5027240;28;20205;-89
2023/11/17 05:41:28;;;;;;;3.28;3.17;;;4.70;99.90;;;;;;5164145;22;20259;-84
2023/11/17 05:43:56;;;;;;;3.05;2.58;;;4.60;99.90;;;;;;5072110;28;20246;-88
2023/11/17 05:46:23;;;;;;;3.88;3.58;;;4.60;99.90;;;;;;5269379;22;20303;-90
2023/11/17 05:48:51;;;;;;;3.15;3.05;;;4.70;99.90;;;;;;5073472;28;20212;-85
2023/11/17 05:51:19;;;;;;;5.95;4.05;;;4.70;99.90;;;;;;5074121;28;20200;-87
2023/11/17 05:53:48;;;;;;;4.80;4.50;;;4.70;99.90;;;;;;5074514;28;20228;-86
2023/11/17 05:56:17;;;;;;;7.05;6.38;;;4.70;99.90;;;;;;5072306;28;20230;-88
2023/11/17 05:58:47;;;;;;;4.85;2.67;;;4.60;99.90;;;;;;5073794;28;20187;-89
2023/11/17 06:04:01;;;;;;;4.80;2.70;;;4.70;99.90;;;;;;5161988;22;20232;-86
2023/11/17 06:06:29;;;;;;;4.32;3.28;;;4.60;99.90;;;;;;5123924;22;20291;-86
2023/11/17 06:08:56;;;;;;;4.78;3.33;;;4.50;99.90;;;;;;5048200;28;20201;-85
2023/11/17 06:11:25;;;;;;;2.95;2.80;;;4.50;99.90;;;;;;5053557;28;20193;-86
2023/11/17 06:13:55;;;;;;;4.90;3.33;;;4.40;99.90;;;;;;5046870;28;20221;-84
2023/11/17 06:16:25;;;;;;;3.50;3.20;;;4.30;99.90;;;;;;5051835;28;20209;-87
2023/11/17 06:18:52;;;;;;;3.63;3.13;;;4.40;99.90;;;;;;5043141;28;20210;-85
2023/11/17 06:21:20;;;;;;;2.22;2.03;;;4.30;99.90;;;;;;5048459;28;20194;-87
2023/11/17 06:23:48;;;;;;;3.55;3.35;;;4.30;99.90;;;;;;5054307;28;20221;-88
2023/11/17 06:26:15;;;;;;;4.00;3.15;;;4.40;99.90;;;;;;5055464;28;20193;-83
2023/11/17 06:28:43;;;;;;;1.17;1.17;;;4.50;99.90;;;;;;5047972;28;20269;-87
2023/11/17 06:31:11;;;;;;;2.88;2.78;;;4.50;99.90;;;;;;5045793;28;20214;-84
2023/11/17 06:33:38;;;;;;;9.25;3.33;;;4.40;99.90;;;;;;5046818;28;20202;-87
2023/11/17 06:36:06;;;;;;;5.97;3.47;;;4.40;99.90;;;;;;5032518;28;20237;-88
2023/11/17 06:38:34;;;;;;;3.40;3.20;;;4.30;99.90;;;;;;5043865;28;20220;-86
2023/11/17 06:41:03;;;;;;;2.38;2.25;;;4.30;99.90;;;;;;5048224;28;20205;-82
2023/11/17 06:43:29;;;;;;;3.20;2.40;;;4.20;99.90;;;;;;5050819;28;20251;-86
2023/11/17 06:45:58;;;;;;;5.03;4.60;;;4.20;99.90;;;;;;5041509;28;20498;-83
2023/11/17 06:48:28;;;;;;;4.40;3.30;;;4.10;99.90;;;;;;5048659;28;20197;-88
2023/11/17 06:50:55;;;;;;;6.13;5.55;;;3.90;99.90;;;;;;5063115;28;20196;-88
2023/11/17 06:53:24;;;;;;;0.60;0.60;;;3.90;99.90;;;;;;5040612;28;20260;-90
2023/11/17 06:55:51;;;;;;;2.47;2.28;;;3.90;99.90;;;;;;5037129;28;20197;-87
2023/11/17 06:58:19;;;;;;;6.97;6.25;;;4.00;99.90;;;;;;5048732;28;20400;-85
2023/11/17 07:00:47;;;;;;;2.38;2.28;;;4.00;99.90;;;;;;5124659;22;20237;-82
2023/11/17 07:03:14;;;;;;;2.63;2.42;;;4.10;99.90;;;;;;5052501;28;20432;-85
2023/11/17 07:05:42;;;;;;;2.33;2.05;;;4.00;99.90;;;;;;5066212;28;20196;-85
2023/11/17 07:08:10;;;;;;;1.88;1.77;;;3.90;99.90;;;;;;5062523;28;20263;-84
2023/11/17 07:10:37;;;;;;;3.80;3.50;;;4.10;99.90;;;;;;5051917;28;20216;-87
2023/11/17 07:13:05;;;;;;;2.20;2.10;;;3.90;99.90;;;;;;5068057;28;20263;-87
2023/11/17 07:15:33;;;;;;;6.45;4.28;;;3.80;99.90;;;;;;5053284;28;20196;-90
2023/11/17 07:18:00;;;;;;;2.70;2.50;;;3.70;99.90;;;;;;5040945;28;20212;-86
2023/11/17 07:20:29;;;;;;;2.15;2.05;;;3.70;99.90;;;;;;5060455;28;20189;-85
2023/11/17 07:22:57;;;;;;;3.25;1.10;;;3.70;99.90;;;;;;5052338;28;20200;-86
2023/11/17 07:25:27;;;;;;;2.50;2.40;;;3.70;99.90;;;;;;5069431;28;20238;-87
2023/11/17 07:27:55;;;;;;;3.97;3.67;;;3.60;99.90;;;;;;5051827;28;20221;-85
2023/11/17 07:30:23;;;;;;;4.22;3.92;;;3.70;99.90;;;;;;5050169;28;20208;-85
2023/11/17 07:32:53;;;;;;;5.07;3.00;;;3.90;99.90;;;;;;5064472;28;20197;-88
2023/11/17 07:35:21;;;;;;;2.05;1.83;;;3.80;99.90;;;;;;5055425;28;20189;-88
2023/11/17 07:37:49;;;;;;;1.40;1.33;;;3.80;99.90;;;;;;5052602;28;20201;-87
2023/11/17 07:40:16;;;;;;;3.08;2.88;;;4.00;99.90;;;;;;5248320;22;20207;-86
2023/11/17 07:42:43;;;;;;;4.93;3.53;;;3.70;99.90;;;;;;5183295;22;20427;-86
2023/11/17 07:45:11;;;;;;;0.90;0.90;;;3.60;99.90;;;;;;5032610;28;20208;-84
2023/11/17 07:47:41;;;;;;;0.47;0.47;;;3.60;99.90;;;;;;5026082;28;20209;-85
2023/11/17 07:50:13;;;;;;;3.60;3.30;;;3.50;99.90;;;;;;5031479;28;20201;-88
2023/11/17 07:52:43;;;;;;;1.55;1.55;;;3.50;99.90;;;;;;5025247;28;20209;-86
2023/11/17 07:55:14;;;;;;;0.60;0.60;;;3.60;99.90;;;;;;5015349;28;20201;-85
2023/11/17 07:57:41;;;;;;;2.08;1.95;;;3.60;99.90;;;;;;5022181;28;20186;-86
2023/11/17 08:00:25;;;;;;;1.70;1.60;;;3.70;99.90;;;;;;5026826;28;20201;-85
2023/11/17 08:02:54;;;;;;;2.30;2.20;;;3.70;99.90;;;;;;5023359;28;20210;-86
2023/11/17 08:05:21;;;;;;;0.77;0.77;;;3.70;99.90;;;;;;5016577;28;20289;-89
2023/11/17 08:07:49;;;;;;;2.33;2.13;;;3.80;99.90;;;;;;5029902;28;20192;-90
2023/11/17 08:10:19;;;;;;;1.42;1.42;;;3.90;99.90;;;;;;5023057;28;20202;-87
2023/11/17 08:12:46;;;;;;;3.53;2.88;;;3.80;99.90;;;;;;5031922;28;20194;-86
2023/11/17 08:15:15;;;;;;;2.45;2.25;;;4.00;99.90;;;;;;5019833;28;20274;-84
2023/11/17 08:17:43;;;;;;;0.50;0.50;;;4.00;99.90;;;;;;5028159;28;20201;-86
2023/11/17 08:20:14;;;;;;;2.55;1.48;;;4.00;99.90;;;;;;5021976;28;20206;-81
2023/11/17 08:22:42;;;;;;;1.15;1.15;;;3.90;99.90;;;;;;5029608;28;20200;-84
2023/11/17 08:25:11;;;;;;;1.67;0.95;;;4.00;99.90;;;;;;5019728;28;20245;-89
2023/11/17 08:27:38;;;;;;;1.90;1.80;;;4.10;99.90;;;;;;5020048;28;20213;-89
2023/11/17 08:30:07;;;;;;;1.40;1.33;;;4.10;99.90;;;;;;5019224;28;20209;-88
2023/11/17 08:32:39;;;;;;;1.30;1.20;;;4.10;99.90;;;;;;5014010;28;20217;-89
2023/11/17 08:35:08;;;;;;;2.60;2.33;;;4.00;99.90;;;;;;5015138;28;20261;-86
2023/11/17 08:37:37;;;;;;;0.90;0.90;;;4.00;99.90;;;;;;5021821;28;20209;-83
2023/11/17 08:40:09;;;;;;;0.75;0.75;;;4.10;99.90;;;;;;5016377;28;20224;-84
2023/11/17 08:42:37;;;;;;;1.40;1.40;;;4.10;99.90;;;;;;5018465;28;20277;-85
2023/11/17 08:45:09;;;;;;;0.88;0.88;;;4.20;99.90;;;;;;5022365;28;20254;-85
2023/11/17 08:47:38;;;;;;;2.33;1.38;;;4.20;99.90;;;;;;5254266;22;20228;-80
2023/11/17 08:50:08;;;;;;;2.03;1.55;;;4.20;99.90;;;;;;5051731;28;20208;-88
2023/11/17 08:52:41;;;;;;;1.55;1.50;;;4.10;99.90;;;;;;5048271;28;20196;-85
2023/11/17 08:55:13;;;;;;;3.28;2.20;;;4.10;99.90;;;;;;5333946;22;20215;-85
2023/11/17 08:57:44;;;;;;;1.73;1.63;;;4.10;99.90;;;;;;5079843;28;20210;-86
2023/11/17 09:00:14;;;;;;;1.83;1.73;;;3.90;99.90;;;;;;5067898;28;20191;-85
2023/11/17 09:02:45;;;;;;;1.23;1.13;;;3.90;99.90;;;;;;5071674;28;20211;-83
2023/11/17 09:05:17;;;;;;;0.80;0.80;;;3.70;99.90;;;;;;5071708;28;20260;-85
2023/11/17 09:07:49;;;;;;;0.60;0.60;;;3.60;99.90;;;;;;5063161;28;20219;-84
2023/11/17 09:10:21;;;;;;;1.98;1.88;;;3.20;99.90;;;;;;5065134;28;20220;-83
2023/11/17 09:12:49;;;;;;;3.75;2.38;;;3.50;99.90;;;;;;5072001;28;20192;-84
2023/11/17 09:15:18;;;;;;;0.93;0.93;;;3.40;99.90;;;;;;5074685;28;20226;-85
2023/11/17 09:17:50;;;;;;;1.90;0.93;;;3.30;99.90;;;;;;5084688;28;20176;-83
2023/11/17 09:20:24;;;;;;;0.50;0.50;;;3.30;99.90;;;;;;5072640;28;20192;-88
2023/11/17 09:22:51;;;;;;;0.80;0.80;;;3.20;99.90;;;;;;5052891;28;20269;-85
2023/11/17 09:25:22;;;;;;;0.50;0.50;;;3.40;99.90;;;;;;5065739;28;20301;-87
2023/11/17 09:27:57;;;;;;;0.63;0.63;;;3.40;99.90;;;;;;5166489;22;20219;-83
2023/11/17 09:30:28;;;;;;;0.60;0.60;;;3.50;99.90;;;;;;5072540;28;20247;-84
2023/11/17 09:32:57;;;;;;;1.30;1.20;;;3.60;99.90;;;;;;5073015;28;20250;-84
2023/11/17 09:35:26;;;;;;;0.77;0.77;;;3.40;99.90;;;;;;5072145;28;20318;-87
2023/11/17 09:37:58;;;;;;;2.47;1.77;;;3.50;99.90;;;;;;5068557;28;20201;-89
2023/11/17 09:40:33;;;;;;;0.70;0.70;;;3.60;99.90;;;;;;5068826;28;20192;-89
2023/11/17 09:43:21;;;;;;;0.93;0.93;;;3.50;99.90;;;;;;5070628;28;20188;-83
2023/11/17 09:45:51;;;;;;;0.85;0.85;;;3.30;99.90;;;;;;5067353;28;20211;-86
2023/11/17 09:48:21;;;;;;;1.35;1.25;;;3.60;99.90;;;;;;5070235;28;20200;-88
2023/11/17 09:50:50;;;;;;;0.70;0.70;;;3.80;99.90;;;;;;5066973;28;20235;-91
2023/11/17 09:53:22;;;;;;;1.55;1.45;;;3.90;99.90;;;;;;5074881;28;20272;-86
2023/11/17 09:55:49;;;;;;;0.98;0.98;;;3.80;99.90;;;;;;5063085;28;20258;-86
2023/11/17 09:58:20;;;;;;;0.50;0.50;;;3.90;99.90;;;;;;5061294;28;20209;-89
2023/11/17 10:00:48;;;;;;;0.90;0.90;;;4.20;99.90;;;;;;5054765;28;20197;-88
2023/11/17 10:03:19;;;;;;;0.50;0.50;;;4.40;99.90;;;;;;5061200;28;20200;-86
2023/11/17 10:05:49;;;;;;;2.22;2.10;;;4.30;99.90;;;;;;5068512;28;20222;-84
2023/11/17 10:08:17;;;;;;;0.88;0.88;;;4.50;99.90;;;;;;5074228;28;20227;-85
2023/11/17 10:10:45;;;;;;;1.15;1.15;;;4.50;99.90;;;;;;5065747;28;20200;-86
2023/11/17 10:13:16;;;;;;;1.58;1.15;;;4.50;99.90;;;;;;5152071;22;20225;-86
2023/11/17 10:15:51;;;;;;;0.93;0.93;;;4.60;99.90;;;;;;5057723;28;20208;-87
2023/11/17 10:18:29;;;;;;;1.38;1.00;;;4.90;99.90;;;;;;5050863;28;20216;-85
2023/11/17 10:20:59;;;;;;;0.82;0.82;;;4.50;99.90;;;;;;5053872;28;20189;-89
2023/11/17 10:23:31;;;;;;;0.90;0.90;;;4.60;99.90;;;;;;5053083;28;20231;-86
2023/11/17 10:25:58;;;;;;;1.83;1.73;;;4.30;99.90;;;;;;5040602;28;20239;-88
2023/11/17 10:28:26;;;;;;;1.50;1.45;;;4.20;99.90;;;;;;5051743;28;20232;-84
2023/11/17 10:31:05;;;;;;;0.82;0.82;;;4.40;99.90;;;;;;5054619;28;20197;-85
2023/11/17 10:33:42;;;;;;;1.67;1.58;;;4.20;99.90;;;;;;5058737;28;20211;-88
2023/11/17 10:36:15;;;;;;;0.85;0.85;;;4.20;99.90;;;;;;5053864;28;20211;-86
2023/11/17 10:38:48;;;;;;;1.08;1.08;;;4.10;99.90;;;;;;5060312;28;20200;-88
2023/11/17 10:41:33;;;;;;;1.35;1.35;;;4.10;99.90;;;;;;5052892;28;20204;-89
2023/11/17 10:44:08;;;;;;;2.03;1.90;;;4.20;99.90;;;;;;5047085;28;20450;-84
2023/11/17 10:46:35;;;;;;;1.42;1.42;;;4.10;99.90;;;;;;5055141;28;20211;-87
2023/11/17 10:49:07;;;;;;;2.13;2.03;;;3.90;99.90;;;;;;5063012;28;20228;-85
2023/11/17 10:51:46;;;;;;;2.65;2.50;;;4.00;99.90;;;;;;5032905;28;20201;-86
2023/11/17 10:54:13;;;;;;;1.10;1.10;;;3.90;99.90;;;;;;5045692;28;20201;-85
2023/11/17 10:56:47;;;;;;;5.35;2.45;;;4.00;99.90;;;;;;5057411;28;20209;-88
2023/11/17 10:59:21;;;;;;;1.08;1.08;;;4.00;99.90;;;;;;5049245;28;20221;-89
2023/11/17 11:01:51;;;;;;;2.10;1.73;;;4.00;99.90;;;;;;5048596;28;20378;-84
2023/11/17 11:04:25;;;;;;;0.75;0.75;;;3.90;99.90;;;;;;5051044;28;20193;-88
2023/11/17 11:06:55;;;;;;;0.95;0.95;;;3.80;99.90;;;;;;5050144;28;20259;-88
2023/11/17 11:09:32;;;;;;;0.60;0.60;;;4.00;99.90;;;;;;5053224;28;20216;-89
2023/11/17 11:12:00;;;;;;;1.35;1.35;;;4.00;99.90;;;;;;5043775;28;20193;-87
2023/11/17 11:14:28;;;;;;;1.73;1.63;;;4.10;99.90;;;;;;5049467;28;20205;-87
2023/11/17 11:16:56;;;;;;;2.05;1.13;;;4.00;99.90;;;;;;5047325;28;20205;-84
2023/11/17 11:19:31;;;;;;;1.45;1.10;;;4.00;99.90;;;;;;5047880;28;20197;-87
2023/11/17 11:22:15;;;;;;;1.23;1.23;;;4.00;99.90;;;;;;5044174;28;20193;-88
2023/11/17 11:24:43;;;;;;;0.60;0.60;;;4.00;99.90;;;;;;5046978;28;20252;-85
2023/11/17 11:27:14;;;;;;;0.70;0.70;;;4.00;99.90;;;;;;5049118;28;20228;-87
2023/11/17 11:29:43;;;;;;;1.48;1.48;;;4.10;99.90;;;;;;5047847;28;20235;-87
2023/11/17 11:32:11;;;;;;;0.60;0.60;;;4.10;99.90;;;;;;5048201;28;20212;-87
2023/11/17 11:34:39;;;;;;;1.45;1.00;;;4.20;99.90;;;;;;5048187;28;20235;-86
2023/11/17 11:37:10;;;;;;;0.82;0.82;;;4.20;99.90;;;;;;5048628;28;20201;-87
2023/11/17 11:39:37;;;;;;;2.08;2.00;;;4.30;99.90;;;;;;5049223;28;20207;-88
2023/11/17 11:42:06;;;;;;;3.55;2.90;;;4.30;99.90;;;;;;5049521;28;20228;-87
2023/11/17 11:44:36;;;;;;;2.05;1.42;;;4.40;99.90;;;;;;5048254;28;20196;-87
2023/11/17 11:47:04;;;;;;;0.40;0.40;;;4.30;99.90;;;;;;5050928;28;20205;-88
2023/11/17 11:49:33;;;;;;;0.88;0.88;;;4.30;99.90;;;;;;5048368;28;20205;-89
2023/11/17 11:52:28;;;;;;;1.45;1.35;;;4.30;99.90;;;;;;5049030;28;20220;-89
2023/11/17 11:54:56;;;;;;;1.90;1.48;;;4.40;99.90;;;;;;5049334;28;20528;-89
2023/11/17 11:57:25;;;;;;;0.70;0.70;;;4.50;99.90;;;;;;5048079;28;20223;-89
2023/11/17 12:00:12;;;;;;;2.00;1.90;;;4.40;99.90;;;;;;5049081;28;20211;-87
2023/11/17 12:02:58;;;;;;;2.88;2.42;;;4.20;99.90;;;;;;5048327;28;20211;-85
2023/11/17 12:05:30;;;;;;;1.42;1.40;;;4.20;99.90;;;;;;5049381;28;20228;-85
2023/11/17 12:08:00;;;;;;;1.35;1.35;;;4.10;99.90;;;;;;5038644;28;20262;-88
2023/11/17 12:10:45;;;;;;;2.00;1.88;;;4.20;99.90;;;;;;5048523;28;20253;-88
2023/11/17 12:13:37;;;;;;;0.93;0.93;;;4.30;99.90;;;;;;5043010;28;20505;-85
2023/11/17 12:16:09;;;;;;;1.20;1.20;;;4.30;99.90;;;;;;5046211;28;20213;-87
2023/11/17 12:18:37;;;;;;;1.77;1.65;;;4.30;99.90;;;;;;5050025;28;20409;-85
2023/11/17 12:21:17;;;;;;;1.30;1.30;;;4.30;99.90;;;;;;5049490;28;20211;-86
2023/11/17 12:23:58;;;;;;;1.15;1.15;;;4.30;99.90;;;;;;5048641;28;20461;-87
2023/11/17 12:26:29;;;;;;;0.63;0.63;;;4.20;99.90;;;;;;5043794;28;20292;-85
2023/11/17 12:29:00;;;;;;;0.77;0.77;;;4.40;99.90;;;;;;5048705;28;20227;-87
2023/11/17 12:31:29;;;;;;;0.80;0.80;;;4.30;99.90;;;;;;5047706;28;20189;-87
2023/11/17 12:33:59;;;;;;;0.50;0.50;;;4.20;99.90;;;;;;5046848;28;20204;-86
2023/11/17 12:36:29;;;;;;;0.80;0.80;;;4.30;99.90;;;;;;5049302;28;20200;-88
2023/11/17 12:38:59;;;;;;;0.60;0.60;;;4.30;99.90;;;;;;5049813;28;20224;-87
2023/11/17 12:41:27;;;;;;;1.10;1.08;;;4.30;99.90;;;;;;5053366;28;20188;-84
2023/11/17 12:43:56;;;;;;;0.50;0.50;;;4.50;99.90;;;;;;5053327;28;20193;-88
2023/11/17 12:46:25;;;;;;;1.08;1.08;;;4.30;99.90;;;;;;5155434;22;20565;-83
2023/11/17 12:48:53;;;;;;;1.25;1.25;;;4.30;99.90;;;;;;5344625;22;20287;-86
2023/11/17 12:51:25;;;;;;;0.65;0.65;;;4.30;99.90;;;;;;5052933;28;20197;-85
2023/11/17 12:53:55;;;;;;;0.50;0.50;;;4.30;99.90;;;;;;5039957;28;20197;-85
2023/11/17 12:56:24;;;;;;;1.27;1.23;;;4.30;99.90;;;;;;5047914;28;20193;-84
2023/11/17 12:58:53;;;;;;;0.80;0.80;;;4.30;99.90;;;;;;5050896;28;20219;-83
2023/11/17 13:01:22;;;;;;;0.82;0.82;;;4.40;99.90;;;;;;5179230;22;20248;-85
2023/11/17 13:03:52;;;;;;;0.73;0.73;;;4.40;99.90;;;;;;5058308;28;20189;-87
2023/11/17 13:06:24;;;;;;;0.90;0.90;;;4.40;99.90;;;;;;5467267;22;20262;-83
2023/11/17 13:08:53;;;;;;;1.02;1.02;;;4.40;99.90;;;;;;5053927;28;20219;-85
2023/11/17 13:11:28;;;;;;;0.82;0.82;;;4.40;99.90;;;;;;5052531;28;20292;-84
2023/11/17 13:13:56;;;;;;;0.85;0.85;;;4.40;99.90;;;;;;5041291;28;20358;-86
2023/11/17 13:16:28;;;;;;;0.70;0.70;;;4.40;99.90;;;;;;5049329;28;20202;-85
2023/11/17 13:18:57;;;;;;;0.50;0.50;;;4.30;99.90;;;;;;5051175;28;20212;-87
2023/11/17 13:21:24;;;;;;;1.05;1.00;;;4.30;99.90;;;;;;5047849;28;20228;-87
2023/11/17 13:23:52;;;;;;;0.60;0.60;;;4.30;99.90;;;;;;5049041;28;20201;-85